sensor_id;sensor_type;location;lat;lon;timestamp;pressure;altitude;pressure_sealevel;temperature;humidity
8637;BME280;4356;49.068;8.658;2023-07-20T00:02:04;99732.63;;;28.73;34.48
8637;BME280;4356;49.068;8.658;2023-07-20T00:04:31;99753.88;;;28.78;34.39
8637;BME280;4356;49.068;8.658;2023-07-20T00:06:56;99742.28;;;28.76;34.47
8637;BME280;4356;49.068;8.658;2023-07-20T00:09:21;99740.41;;;28.71;34.37
8637;BME280;4356;49.068;8.658;2023-07-20T00:11:51;99755.56;;;28.74;34.26
8637;BME280;4356;49.068;8.658;2023-07-20T00:14:17;99755.56;;;28.74;34.49
8637;BME280;4356;49.068;8.658;2023-07-20T00:16:43;99757.78;;;28.72;34.46
8637;BME280;4356;49.068;8.658;2023-07-20T00:19:09;99747.63;;;28.67;34.75
8637;BME280;4356;49.068;8.658;2023-07-20T00:21:35;99744.09;;;28.62;34.60
8637;BME280;4356;49.068;8.658;2023-07-20T00:24:02;99739.16;;;28.59;34.63
8637;BME280;4356;49.068;8.658;2023-07-20T00:26:27;99758.16;;;28.65;34.85
8637;BME280;4356;49.068;8.658;2023-07-20T00:28:52;99752.91;;;28.64;35.14
8637;BME280;4356;49.068;8.658;2023-07-20T00:31:18;99752.38;;;28.62;34.79
8637;BME280;4356;49.068;8.658;2023-07-20T00:33:43;99750.44;;;28.62;35.04
8637;BME280;4356;49.068;8.658;2023-07-20T00:36:08;99757.38;;;28.60;34.99
8637;BME280;4356;49.068;8.658;2023-07-20T00:38:34;99747.47;;;28.54;35.11
8637;BME280;4356;49.068;8.658;2023-07-20T00:40:59;99757.16;;;28.56;34.90
8637;BME280;4356;49.068;8.658;2023-07-20T00:43:24;99754.38;;;28.56;35.21
8637;BME280;4356;49.068;8.658;2023-07-20T00:45:50;99751.06;;;28.54;35.06
8637;BME280;4356;49.068;8.658;2023-07-20T00:48:15;99738.97;;;28.45;35.03
8637;BME280;4356;49.068;8.658;2023-07-20T00:50:41;99751.63;;;28.51;35.16
8637;BME280;4356;49.068;8.658;2023-07-20T00:53:07;99750.81;;;28.51;35.17
8637;BME280;4356;49.068;8.658;2023-07-20T00:55:33;99742.31;;;28.42;34.99
8637;BME280;4356;49.068;8.658;2023-07-20T00:57:59;99749.19;;;28.44;35.05
8637;BME280;4356;49.068;8.658;2023-07-20T01:00:25;99753.31;;;28.47;35.02
8637;BME280;4356;49.068;8.658;2023-07-20T01:02:51;99758.84;;;28.47;35.13
8637;BME280;4356;49.068;8.658;2023-07-20T01:05:17;99752.25;;;28.43;34.97
8637;BME280;4356;49.068;8.658;2023-07-20T01:10:29;99758.91;;;28.42;34.77
8637;BME280;4356;49.068;8.658;2023-07-20T01:12:57;99750.38;;;28.38;35.13
8637;BME280;4356;49.068;8.658;2023-07-20T01:15:22;99754.25;;;28.37;35.02
8637;BME280;4356;49.068;8.658;2023-07-20T01:17:48;99753.69;;;28.35;35.14
8637;BME280;4356;49.068;8.658;2023-07-20T01:20:15;99757.59;;;28.34;35.16
8637;BME280;4356;49.068;8.658;2023-07-20T01:26:08;99763.13;;;28.34;35.20
8637;BME280;4356;49.068;8.658;2023-07-20T01:31:23;99752.13;;;28.29;35.32
8637;BME280;4356;49.068;8.658;2023-07-20T01:33:50;99749.66;;;28.28;35.35
8637;BME280;4356;49.068;8.658;2023-07-20T01:36:18;99741.13;;;28.24;35.18
8637;BME280;4356;49.068;8.658;2023-07-20T01:38:45;99749.41;;;28.24;35.14
8637;BME280;4356;49.068;8.658;2023-07-20T01:41:10;99746.66;;;28.24;35.24
8637;BME280;4356;49.068;8.658;2023-07-20T01:43:36;99746.13;;;28.22;35.12
8637;BME280;4356;49.068;8.658;2023-07-20T01:46:02;99746.91;;;28.23;35.10
8637;BME280;4356;49.068;8.658;2023-07-20T01:48:27;99733.19;;;28.13;35.29
8637;BME280;4356;49.068;8.658;2023-07-20T01:50:52;99738.72;;;28.13;35.38
8637;BME280;4356;49.068;8.658;2023-07-20T01:53:19;99748.91;;;28.17;35.15
8637;BME280;4356;49.068;8.658;2023-07-20T01:55:45;99752.50;;;28.18;35.08
8637;BME280;4356;49.068;8.658;2023-07-20T01:58:10;99742.84;;;28.15;35.28
8637;BME280;4356;49.068;8.658;2023-07-20T02:00:37;99734.06;;;28.08;35.14
8637;BME280;4356;49.068;8.658;2023-07-20T02:03:02;99745.09;;;28.13;35.27
8637;BME280;4356;49.068;8.658;2023-07-20T02:05:28;99730.50;;;28.03;35.40
8637;BME280;4356;49.068;8.658;2023-07-20T02:07:53;99732.94;;;28.09;35.29
8637;BME280;4356;49.068;8.658;2023-07-20T02:10:19;99743.16;;;28.09;35.29
8637;BME280;4356;49.068;8.658;2023-07-20T02:12:44;99739.06;;;28.06;35.16
8637;BME280;4356;49.068;8.658;2023-07-20T02:15:10;99731.94;;;28.00;35.26
8637;BME280;4356;49.068;8.658;2023-07-20T02:17:35;99725.31;;;27.96;35.47
8637;BME280;4356;49.068;8.658;2023-07-20T02:20:00;99742.38;;;28.03;35.32
8637;BME280;4356;49.068;8.658;2023-07-20T02:22:26;99738.78;;;28.03;35.27
8637;BME280;4356;49.068;8.658;2023-07-20T02:24:51;99740.22;;;28.00;35.27
8637;BME280;4356;49.068;8.658;2023-07-20T02:27:16;99743.81;;;28.01;35.31
8637;BME280;4356;49.068;8.658;2023-07-20T02:29:42;99747.41;;;27.96;35.43
8637;BME280;4356;49.068;8.658;2023-07-20T02:32:08;99749.59;;;27.99;35.47
8637;BME280;4356;49.068;8.658;2023-07-20T02:34:35;99738.59;;;27.94;35.14
8637;BME280;4356;49.068;8.658;2023-07-20T02:37:00;99743.28;;;27.94;35.40
8637;BME280;4356;49.068;8.658;2023-07-20T02:39:29;99752.69;;;27.93;35.53
8637;BME280;4356;49.068;8.658;2023-07-20T02:41:55;99747.16;;;27.93;35.53
8637;BME280;4356;49.068;8.658;2023-07-20T02:44:20;99743.84;;;27.91;35.80
8637;BME280;4356;49.068;8.658;2023-07-20T02:50:08;99758.78;;;27.90;35.51
8637;BME280;4356;49.068;8.658;2023-07-20T02:52:33;99749.41;;;27.86;35.47
8637;BME280;4356;49.068;8.658;2023-07-20T02:54:59;99753.25;;;27.85;35.47
8637;BME280;4356;49.068;8.658;2023-07-20T02:57:25;99748.03;;;27.83;35.51
8637;BME280;4356;49.068;8.658;2023-07-20T02:59:50;99757.16;;;27.84;35.84
8637;BME280;4356;49.068;8.658;2023-07-20T03:02:15;99745.84;;;27.80;35.50
8637;BME280;4356;49.068;8.658;2023-07-20T03:04:41;99746.97;;;27.79;35.74
8637;BME280;4356;49.068;8.658;2023-07-20T03:07:06;99760.50;;;27.81;35.68
8637;BME280;4356;49.068;8.658;2023-07-20T03:09:33;99761.88;;;27.78;35.77
8637;BME280;4356;49.068;8.658;2023-07-20T03:11:58;99760.25;;;27.77;35.70
8637;BME280;4356;49.068;8.658;2023-07-20T03:14:23;99760.25;;;27.77;35.58
8637;BME280;4356;49.068;8.658;2023-07-20T03:16:49;99756.09;;;27.75;35.57
8637;BME280;4356;49.068;8.658;2023-07-20T03:19:14;99758.31;;;27.73;35.81
8637;BME280;4356;49.068;8.658;2023-07-20T03:21:40;99762.75;;;27.74;35.70
8637;BME280;4356;49.068;8.658;2023-07-20T03:24:07;99760.25;;;27.72;35.74
8637;BME280;4356;49.068;8.658;2023-07-20T03:26:34;99763.84;;;27.73;35.54
8637;BME280;4356;49.068;8.658;2023-07-20T03:29:00;99752.06;;;27.62;35.75
8637;BME280;4356;49.068;8.658;2023-07-20T03:31:25;99761.97;;;27.68;35.58
8637;BME280;4356;49.068;8.658;2023-07-20T03:33:51;99750.13;;;27.63;35.66
8637;BME280;4356;49.068;8.658;2023-07-20T03:36:17;99763.34;;;27.66;35.66
8637;BME280;4356;49.068;8.658;2023-07-20T03:38:42;99759.22;;;27.63;35.98
8637;BME280;4356;49.068;8.658;2023-07-20T03:41:08;99759.53;;;27.57;35.85
8637;BME280;4356;49.068;8.658;2023-07-20T03:43:34;99755.66;;;27.58;35.66
8637;BME280;4356;49.068;8.658;2023-07-20T03:45:59;99773.00;;;27.63;35.77
8637;BME280;4356;49.068;8.658;2023-07-20T03:48:25;99760.13;;;27.54;35.72
8637;BME280;4356;49.068;8.658;2023-07-20T03:50:52;99775.81;;;27.58;35.59
8637;BME280;4356;49.068;8.658;2023-07-20T03:53:18;99776.09;;;27.57;35.68
8637;BME280;4356;49.068;8.658;2023-07-20T03:55:51;99779.69;;;27.57;35.82
8637;BME280;4356;49.068;8.658;2023-07-20T03:58:17;99778.56;;;27.58;35.91
8637;BME280;4356;49.068;8.658;2023-07-20T04:00:45;99792.94;;;27.55;35.82
8637;BME280;4356;49.068;8.658;2023-07-20T04:03:11;99791.88;;;27.51;35.74
8637;BME280;4356;49.068;8.658;2023-07-20T04:05:36;99791.56;;;27.53;35.85
8637;BME280;4356;49.068;8.658;2023-07-20T04:08:01;99784.41;;;27.52;35.98
8637;BME280;4356;49.068;8.658;2023-07-20T04:10:27;99773.13;;;27.43;35.76
8637;BME280;4356;49.068;8.658;2023-07-20T04:12:52;99791.03;;;27.51;35.87
8637;BME280;4356;49.068;8.658;2023-07-20T04:15:17;99776.16;;;27.41;35.98
8637;BME280;4356;49.068;8.658;2023-07-20T04:17:45;99786.66;;;27.45;35.97
8637;BME280;4356;49.068;8.658;2023-07-20T04:20:10;99779.75;;;27.42;36.18
8637;BME280;4356;49.068;8.658;2023-07-20T04:22:36;99783.06;;;27.44;36.17
8637;BME280;4356;49.068;8.658;2023-07-20T04:25:01;99790.53;;;27.43;35.95
8637;BME280;4356;49.068;8.658;2023-07-20T04:27:26;99797.41;;;27.46;36.24
8637;BME280;4356;49.068;8.658;2023-07-20T04:29:52;99795.75;;;27.45;35.89
8637;BME280;4356;49.068;8.658;2023-07-20T04:32:17;99791.06;;;27.46;36.02
8637;BME280;4356;49.068;8.658;2023-07-20T04:34:43;99783.38;;;27.32;36.19
8637;BME280;4356;49.068;8.658;2023-07-20T04:37:08;99794.41;;;27.42;35.91
8637;BME280;4356;49.068;8.658;2023-07-20T04:39:34;99791.38;;;27.39;36.04
8637;BME280;4356;49.068;8.658;2023-07-20T04:42:02;99791.38;;;27.39;35.95
8637;BME280;4356;49.068;8.658;2023-07-20T04:44:27;99791.13;;;27.30;35.99
8637;BME280;4356;49.068;8.658;2023-07-20T04:46:53;99787.53;;;27.30;36.10
8637;BME280;4356;49.068;8.658;2023-07-20T04:49:18;99800.75;;;27.38;36.00
8637;BME280;4356;49.068;8.658;2023-07-20T04:51:45;99800.75;;;27.38;35.95
8637;BME280;4356;49.068;8.658;2023-07-20T04:54:10;99801.88;;;27.37;36.21
8637;BME280;4356;49.068;8.658;2023-07-20T04:56:35;99777.88;;;27.27;36.18
8637;BME280;4356;49.068;8.658;2023-07-20T04:59:01;99805.72;;;27.36;36.29
8637;BME280;4356;49.068;8.658;2023-07-20T05:01:26;99796.66;;;27.35;36.40
8637;BME280;4356;49.068;8.658;2023-07-20T05:03:52;99796.91;;;27.34;36.23
8637;BME280;4356;49.068;8.658;2023-07-20T05:06:18;99792.50;;;27.33;36.26
8637;BME280;4356;49.068;8.658;2023-07-20T05:08:44;99794.13;;;27.34;36.17
8637;BME280;4356;49.068;8.658;2023-07-20T05:11:10;99801.31;;;27.35;36.20
8637;BME280;4356;49.068;8.658;2023-07-20T05:13:37;99798.56;;;27.35;36.34
8637;BME280;4356;49.068;8.658;2023-07-20T05:16:02;99797.72;;;27.34;36.21
8637;BME280;4356;49.068;8.658;2023-07-20T05:18:28;99789.75;;;27.28;36.24
8637;BME280;4356;49.068;8.658;2023-07-20T05:20:53;99794.97;;;27.34;36.19
8637;BME280;4356;49.068;8.658;2023-07-20T05:23:20;99780.09;;;27.25;36.21
8637;BME280;4356;49.068;8.658;2023-07-20T05:25:47;99791.94;;;27.36;36.32
8637;BME280;4356;49.068;8.658;2023-07-20T05:28:12;99788.38;;;27.30;36.43
8637;BME280;4356;49.068;8.658;2023-07-20T05:30:37;99793.88;;;27.30;36.21
8637;BME280;4356;49.068;8.658;2023-07-20T05:33:03;99793.63;;;27.32;36.00
8637;BME280;4356;49.068;8.658;2023-07-20T05:35:28;99788.09;;;27.32;36.17
8637;BME280;4356;49.068;8.658;2023-07-20T05:37:53;99785.31;;;27.27;35.92
8637;BME280;4356;49.068;8.658;2023-07-20T05:40:19;99790.84;;;27.27;36.01
8637;BME280;4356;49.068;8.658;2023-07-20T05:42:46;99791.13;;;27.30;35.94
8637;BME280;4356;49.068;8.658;2023-07-20T05:45:13;99793.59;;;27.27;35.81
8637;BME280;4356;49.068;8.658;2023-07-20T05:47:39;99786.19;;;27.22;35.48
8637;BME280;4356;49.068;8.658;2023-07-20T05:50:05;99784.00;;;27.14;35.69
8637;BME280;4356;49.068;8.658;2023-07-20T05:52:30;99788.69;;;27.14;35.28
8637;BME280;4356;49.068;8.658;2023-07-20T05:54:56;99789.53;;;27.09;35.57
8637;BME280;4356;49.068;8.658;2023-07-20T05:57:21;99783.47;;;27.07;35.53
8637;BME280;4356;49.068;8.658;2023-07-20T05:59:47;99789.56;;;27.04;35.43
8637;BME280;4356;49.068;8.658;2023-07-20T06:02:12;99789.28;;;27.01;35.53
8637;BME280;4356;49.068;8.658;2023-07-20T06:04:38;99801.41;;;27.00;35.63
8637;BME280;4356;49.068;8.658;2023-07-20T06:07:04;99789.03;;;26.97;35.22
8637;BME280;4356;49.068;8.658;2023-07-20T06:09:30;99804.19;;;26.95;35.42
8637;BME280;4356;49.068;8.658;2023-07-20T06:11:55;99801.16;;;26.91;35.41
8637;BME280;4356;49.068;8.658;2023-07-20T06:14:22;99800.06;;;26.92;35.34
8637;BME280;4356;49.068;8.658;2023-07-20T06:16:47;99800.91;;;26.88;35.60
8637;BME280;4356;49.068;8.658;2023-07-20T06:19:12;99798.97;;;26.83;35.23
8637;BME280;4356;49.068;8.658;2023-07-20T06:21:38;99804.22;;;26.85;35.34
8637;BME280;4356;49.068;8.658;2023-07-20T06:24:04;99809.75;;;26.85;35.36
8637;BME280;4356;49.068;8.658;2023-07-20T06:26:29;99801.47;;;26.80;35.58
8637;BME280;4356;49.068;8.658;2023-07-20T06:28:56;99809.72;;;26.80;35.44
8637;BME280;4356;49.068;8.658;2023-07-20T06:31:21;99806.97;;;26.80;35.39
8637;BME280;4356;49.068;8.658;2023-07-20T06:33:46;99807.81;;;26.80;35.29
8637;BME280;4356;49.068;8.658;2023-07-20T06:36:12;99797.06;;;26.79;35.39
8637;BME280;4356;49.068;8.658;2023-07-20T06:38:37;99805.34;;;26.79;35.21
8637;BME280;4356;49.068;8.658;2023-07-20T06:41:03;99783.53;;;26.67;35.15
8637;BME280;4356;49.068;8.658;2023-07-20T06:43:28;99793.22;;;26.75;35.28
8637;BME280;4356;49.068;8.658;2023-07-20T06:45:54;99801.22;;;26.71;35.54
8637;BME280;4356;49.068;8.658;2023-07-20T06:48:20;99797.09;;;26.74;35.45
8637;BME280;4356;49.068;8.658;2023-07-20T06:50:45;99804.53;;;26.73;35.53
8637;BME280;4356;49.068;8.658;2023-07-20T06:53:11;99799.03;;;26.68;35.33
8637;BME280;4356;49.068;8.658;2023-07-20T06:55:36;99802.63;;;26.69;35.27
8637;BME280;4356;49.068;8.658;2023-07-20T06:58:01;99803.94;;;26.66;35.47
8637;BME280;4356;49.068;8.658;2023-07-20T07:00:27;99802.28;;;26.65;35.37
8637;BME280;4356;49.068;8.658;2023-07-20T07:02:52;99791.56;;;26.59;35.47
8637;BME280;4356;49.068;8.658;2023-07-20T07:05:17;99795.97;;;26.65;35.45
8637;BME280;4356;49.068;8.658;2023-07-20T07:07:43;99800.06;;;26.67;35.35
8637;BME280;4356;49.068;8.658;2023-07-20T07:10:09;99803.13;;;26.66;35.49
8637;BME280;4356;49.068;8.658;2023-07-20T07:12:34;99803.66;;;26.68;35.59
8637;BME280;4356;49.068;8.658;2023-07-20T07:15:01;99810.88;;;26.69;35.54
8637;BME280;4356;49.068;8.658;2023-07-20T07:17:27;99802.84;;;26.67;35.44
8637;BME280;4356;49.068;8.658;2023-07-20T07:19:53;99803.41;;;26.64;35.47
8637;BME280;4356;49.068;8.658;2023-07-20T07:22:21;99803.69;;;26.63;35.19
8637;BME280;4356;49.068;8.658;2023-07-20T07:24:47;99801.78;;;26.68;35.61
8637;BME280;4356;49.068;8.658;2023-07-20T07:27:13;99807.53;;;26.67;35.51
8637;BME280;4356;49.068;8.658;2023-07-20T07:29:41;99804.25;;;26.70;35.44
8637;BME280;4356;49.068;8.658;2023-07-20T07:32:07;99802.03;;;26.67;35.30
8637;BME280;4356;49.068;8.658;2023-07-20T07:34:32;99799.56;;;26.70;35.61
8637;BME280;4356;49.068;8.658;2023-07-20T07:36:59;99801.50;;;26.70;35.56
8637;BME280;4356;49.068;8.658;2023-07-20T07:39:25;99799.81;;;26.64;35.64
8637;BME280;4356;49.068;8.658;2023-07-20T07:41:50;99797.09;;;26.69;35.55
8637;BME280;4356;49.068;8.658;2023-07-20T07:44:17;99800.63;;;26.74;35.65
8637;BME280;4356;49.068;8.658;2023-07-20T07:46:43;99800.63;;;26.74;35.74
8637;BME280;4356;49.068;8.658;2023-07-20T07:49:08;99795.97;;;26.75;35.47
8637;BME280;4356;49.068;8.658;2023-07-20T07:51:34;99808.94;;;26.79;35.76
8637;BME280;4356;49.068;8.658;2023-07-20T07:53:59;99804.78;;;26.82;35.65
8637;BME280;4356;49.068;8.658;2023-07-20T07:56:25;99805.59;;;26.82;35.78
8637;BME280;4356;49.068;8.658;2023-07-20T07:58:51;99797.63;;;26.81;35.55
8637;BME280;4356;49.068;8.658;2023-07-20T08:01:17;99810.28;;;26.87;35.52
8637;BME280;4356;49.068;8.658;2023-07-20T08:03:44;99813.56;;;26.89;35.59
8637;BME280;4356;49.068;8.658;2023-07-20T08:06:15;99813.03;;;26.92;35.74
8637;BME280;4356;49.068;8.658;2023-07-20T08:08:40;99805.84;;;26.91;35.59
8637;BME280;4356;49.068;8.658;2023-07-20T08:11:07;99809.41;;;26.96;35.32
8637;BME280;4356;49.068;8.658;2023-07-20T08:13:33;99811.66;;;26.99;35.29
8637;BME280;4356;49.068;8.658;2023-07-20T08:15:58;99805.00;;;27.00;35.32
8637;BME280;4356;49.068;8.658;2023-07-20T08:18:24;99808.03;;;27.04;35.36
8637;BME280;4356;49.068;8.658;2023-07-20T08:20:49;99806.38;;;27.08;35.35
8637;BME280;4356;49.068;8.658;2023-07-20T08:23:15;99803.59;;;27.08;35.17
8637;BME280;4356;49.068;8.658;2023-07-20T08:25:41;99814.03;;;27.16;35.17
8637;BME280;4356;49.068;8.658;2023-07-20T08:28:10;99815.44;;;27.18;34.93
8637;BME280;4356;49.068;8.658;2023-07-20T08:30:47;99812.94;;;27.22;35.21
8637;BME280;4356;49.068;8.658;2023-07-20T08:33:15;99806.03;;;27.24;35.14
8637;BME280;4356;49.068;8.658;2023-07-20T08:35:40;99801.88;;;27.27;35.05
8637;BME280;4356;49.068;8.658;2023-07-20T08:38:06;99804.91;;;27.30;35.16
8637;BME280;4356;49.068;8.658;2023-07-20T08:40:33;99808.50;;;27.31;34.94
8637;BME280;4356;49.068;8.658;2023-07-20T08:42:59;99814.56;;;27.38;34.79
8637;BME280;4356;49.068;8.658;2023-07-20T08:45:28;99802.97;;;27.41;34.62
8637;BME280;4356;49.068;8.658;2023-07-20T08:47:56;99798.03;;;27.33;34.88
8637;BME280;4356;49.068;8.658;2023-07-20T08:50:25;99804.03;;;27.45;34.37
8637;BME280;4356;49.068;8.658;2023-07-20T08:52:52;99799.34;;;27.46;34.37
8637;BME280;4356;49.068;8.658;2023-07-20T08:55:18;99796.56;;;27.51;34.69
8637;BME280;4356;49.068;8.658;2023-07-20T08:57:45;99788.53;;;27.54;34.36
8637;BME280;4356;49.068;8.658;2023-07-20T09:00:13;99792.94;;;27.55;34.15
8637;BME280;4356;49.068;8.658;2023-07-20T09:02:39;99799.28;;;27.61;34.13
8637;BME280;4356;49.068;8.658;2023-07-20T09:05:08;99787.94;;;27.62;34.23
8637;BME280;4356;49.068;8.658;2023-07-20T09:07:36;99792.09;;;27.65;34.23
8637;BME280;4356;49.068;8.658;2023-07-20T09:10:02;99792.34;;;27.68;34.38
8637;BME280;4356;49.068;8.658;2023-07-20T09:12:35;99791.22;;;27.69;34.34
8637;BME280;4356;49.068;8.658;2023-07-20T09:15:00;99795.06;;;27.73;34.19
8637;BME280;4356;49.068;8.658;2023-07-20T09:17:26;99797.81;;;27.73;34.02
8637;BME280;4356;49.068;8.658;2023-07-20T09:19:52;99788.66;;;27.78;33.97
8637;BME280;4356;49.068;8.658;2023-07-20T09:22:17;99785.91;;;27.78;34.04
8637;BME280;4356;49.068;8.658;2023-07-20T09:24:44;99789.75;;;27.82;33.89
8637;BME280;4356;49.068;8.658;2023-07-20T09:27:10;99798.28;;;27.85;33.96
8637;BME280;4356;49.068;8.658;2023-07-20T09:29:52;99795.53;;;27.85;34.10
8637;BME280;4356;49.068;8.658;2023-07-20T09:32:18;99779.25;;;27.84;33.84
8637;BME280;4356;49.068;8.658;2023-07-20T09:34:45;99788.63;;;27.88;33.97
8637;BME280;4356;49.068;8.658;2023-07-20T09:37:11;99782.50;;;27.91;33.76
8637;BME280;4356;49.068;8.658;2023-07-20T09:39:46;99787.22;;;27.95;33.86
8637;BME280;4356;49.068;8.658;2023-07-20T09:42:12;99788.28;;;27.99;33.75
8637;BME280;4356;49.068;8.658;2023-07-20T09:44:43;99784.13;;;28.02;33.83
8637;BME280;4356;49.068;8.658;2023-07-20T09:47:09;99788.25;;;28.04;33.63
8637;BME280;4356;49.068;8.658;2023-07-20T09:49:41;99786.84;;;28.07;33.61
8637;BME280;4356;49.068;8.658;2023-07-20T09:52:08;99784.63;;;28.09;33.88
8637;BME280;4356;49.068;8.658;2023-07-20T09:54:37;99765.63;;;28.02;33.66
8637;BME280;4356;49.068;8.658;2023-07-20T09:57:03;99776.88;;;28.11;33.57
8637;BME280;4356;49.068;8.658;2023-07-20T09:59:29;99784.56;;;28.19;33.33
8637;BME280;4356;49.068;8.658;2023-07-20T10:01:58;99774.59;;;28.18;33.51
8637;BME280;4356;49.068;8.658;2023-07-20T10:04:25;99778.72;;;28.20;33.29
8637;BME280;4356;49.068;8.658;2023-07-20T10:06:54;99770.97;;;28.22;33.39
8637;BME280;4356;49.068;8.658;2023-07-20T10:09:22;99772.31;;;28.30;33.25
8637;BME280;4356;49.068;8.658;2023-07-20T10:11:53;99779.72;;;28.34;32.94
8637;BME280;4356;49.068;8.658;2023-07-20T10:14:20;99781.31;;;28.40;33.04
8637;BME280;4356;49.068;8.658;2023-07-20T10:16:57;99774.38;;;28.43;32.87
8637;BME280;4356;49.068;8.658;2023-07-20T10:19:28;99765.28;;;28.42;32.83
8637;BME280;4356;49.068;8.658;2023-07-20T10:22:08;99770.44;;;28.54;32.85
8637;BME280;4356;49.068;8.658;2023-07-20T10:24:36;99770.66;;;28.58;32.52
8637;BME280;4356;49.068;8.658;2023-07-20T10:27:02;99766.50;;;28.60;32.46
8637;BME280;4356;49.068;8.658;2023-07-20T10:29:28;99768.13;;;28.66;32.58
8637;BME280;4356;49.068;8.658;2023-07-20T10:31:55;99753.75;;;28.64;32.64
8637;BME280;4356;49.068;8.658;2023-07-20T10:34:21;99762.22;;;28.73;32.39
8637;BME280;4356;49.068;8.658;2023-07-20T10:36:47;99740.97;;;28.68;32.47
8637;BME280;4356;49.068;8.658;2023-07-20T10:39:32;99750.25;;;28.82;32.70
8637;BME280;4356;49.068;8.658;2023-07-20T10:42:09;99754.34;;;28.85;31.99
8637;BME280;4356;49.068;8.658;2023-07-20T10:44:41;99739.41;;;28.86;31.95
8637;BME280;4356;49.068;8.658;2023-07-20T10:47:11;99736.28;;;28.92;32.33
8637;BME280;4356;49.068;8.658;2023-07-20T10:49:59;99741.75;;;28.97;32.03
8637;BME280;4356;49.068;8.658;2023-07-20T10:52:25;99736.44;;;29.01;32.02
8637;BME280;4356;49.068;8.658;2023-07-20T10:54:51;99730.69;;;28.97;31.99
8637;BME280;4356;49.068;8.658;2023-07-20T10:57:36;99738.88;;;29.07;31.95
8637;BME280;4356;49.068;8.658;2023-07-20T11:00:09;99733.59;;;29.11;31.71
8637;BME280;4356;49.068;8.658;2023-07-20T11:02:44;99731.06;;;29.14;31.78
8637;BME280;4356;49.068;8.658;2023-07-20T11:05:32;99728.00;;;29.16;31.84
8637;BME280;4356;49.068;8.658;2023-07-20T11:07:59;99726.88;;;29.17;31.88
8637;BME280;4356;49.068;8.658;2023-07-20T11:10:24;99738.97;;;29.21;32.09
8637;BME280;4356;49.068;8.658;2023-07-20T11:13:20;99733.44;;;29.21;31.64
8637;BME280;4356;49.068;8.658;2023-07-20T11:18:27;99726.06;;;29.16;31.03
8637;BME280;4356;49.068;8.658;2023-07-20T11:20:53;99725.22;;;29.16;31.00
8637;BME280;4356;49.068;8.658;2023-07-20T11:23:22;99713.63;;;29.14;30.86
8637;BME280;4356;49.068;8.658;2023-07-20T11:25:49;99721.63;;;29.15;30.86
8637;BME280;4356;49.068;8.658;2023-07-20T11:28:15;99712.78;;;29.13;30.85
8637;BME280;4356;49.068;8.658;2023-07-20T11:30:41;99718.31;;;29.13;30.90
8637;BME280;4356;49.068;8.658;2023-07-20T11:33:08;99713.31;;;29.15;30.50
8637;BME280;4356;49.068;8.658;2023-07-20T11:35:45;99710.28;;;29.17;30.27
8637;BME280;4356;49.068;8.658;2023-07-20T11:38:12;99711.09;;;29.17;30.91
8637;BME280;4356;49.068;8.658;2023-07-20T11:40:45;99703.63;;;29.18;30.27
8637;BME280;4356;49.068;8.658;2023-07-20T11:43:12;99699.94;;;29.22;30.44
8637;BME280;4356;49.068;8.658;2023-07-20T11:45:38;99699.66;;;29.24;30.17
8637;BME280;4356;49.068;8.658;2023-07-20T11:48:04;99684.16;;;29.23;30.20
8637;BME280;4356;49.068;8.658;2023-07-20T11:50:30;99690.22;;;29.25;30.05
8637;BME280;4356;49.068;8.658;2023-07-20T11:52:56;99691.28;;;29.29;29.79
8637;BME280;4356;49.068;8.658;2023-07-20T11:55:21;99697.88;;;29.33;30.00
8637;BME280;4356;49.068;8.658;2023-07-20T11:58:06;99688.22;;;29.30;29.81
8637;BME280;4356;49.068;8.658;2023-07-20T12:00:33;99688.97;;;29.36;29.48
8637;BME280;4356;49.068;8.658;2023-07-20T12:02:59;99677.06;;;29.35;29.46
8637;BME280;4356;49.068;8.658;2023-07-20T12:05:25;99681.19;;;29.38;29.51
8637;BME280;4356;49.068;8.658;2023-07-20T12:07:51;99679.25;;;29.38;28.91
8637;BME280;4356;49.068;8.658;2023-07-20T12:10:23;99678.13;;;29.39;29.14
8637;BME280;4356;49.068;8.658;2023-07-20T12:12:49;99672.56;;;29.39;28.92
8637;BME280;4356;49.068;8.658;2023-07-20T12:15:22;99678.34;;;29.43;29.18
8637;BME280;4356;49.068;8.658;2023-07-20T12:17:53;99666.44;;;29.42;29.00
8637;BME280;4356;49.068;8.658;2023-07-20T12:20:29;99670.78;;;29.49;28.90
8637;BME280;4356;49.068;8.658;2023-07-20T12:23:00;99673.25;;;29.50;29.11
8637;BME280;4356;49.068;8.658;2023-07-20T12:25:52;99671.00;;;29.52;28.64
8637;BME280;4356;49.068;8.658;2023-07-20T12:28:19;99668.75;;;29.54;28.65
8637;BME280;4356;49.068;8.658;2023-07-20T12:30:45;99664.06;;;29.55;28.84
8637;BME280;4356;49.068;8.658;2023-07-20T12:33:11;99656.25;;;29.57;28.72
8637;BME280;4356;49.068;8.658;2023-07-20T12:35:40;99662.34;;;29.59;28.53
8637;BME280;4356;49.068;8.658;2023-07-20T12:38:06;99662.03;;;29.60;28.58
8637;BME280;4356;49.068;8.658;2023-07-20T12:40:32;99664.72;;;29.65;28.59
8637;BME280;4356;49.068;8.658;2023-07-20T12:42:57;99652.22;;;29.68;28.72
8637;BME280;4356;49.068;8.658;2023-07-20T12:45:23;99652.75;;;29.70;28.42
8637;BME280;4356;49.068;8.658;2023-07-20T12:47:48;99654.41;;;29.71;28.18
8637;BME280;4356;49.068;8.658;2023-07-20T12:50:14;99640.88;;;29.69;28.62
8637;BME280;4356;49.068;8.658;2023-07-20T12:52:40;99643.22;;;29.76;28.11
8637;BME280;4356;49.068;8.658;2023-07-20T12:55:07;99645.38;;;29.79;28.11
8637;BME280;4356;49.068;8.658;2023-07-20T12:57:34;99637.91;;;29.79;28.03
8637;BME280;4356;49.068;8.658;2023-07-20T13:00:00;99632.38;;;29.79;27.74
8637;BME280;4356;49.068;8.658;2023-07-20T13:02:27;99626.22;;;29.82;27.76
8637;BME280;4356;49.068;8.658;2023-07-20T13:04:52;99621.50;;;29.83;27.64
8637;BME280;4356;49.068;8.658;2023-07-20T13:07:29;99626.16;;;29.87;27.83
8637;BME280;4356;49.068;8.658;2023-07-20T13:09:55;99613.41;;;29.86;27.68
8637;BME280;4356;49.068;8.658;2023-07-20T13:12:20;99614.75;;;29.89;27.75
8637;BME280;4356;49.068;8.658;2023-07-20T13:14:45;99611.69;;;29.90;27.78
8637;BME280;4356;49.068;8.658;2023-07-20T13:17:11;99609.44;;;29.92;27.89
8637;BME280;4356;49.068;8.658;2023-07-20T13:19:36;99614.13;;;29.92;27.56
8637;BME280;4356;49.068;8.658;2023-07-20T13:22:01;99616.81;;;29.97;27.47
8637;BME280;4356;49.068;8.658;2023-07-20T13:24:27;99606.88;;;29.96;27.67
8637;BME280;4356;49.068;8.658;2023-07-20T13:26:52;99611.78;;;29.99;27.30
8637;BME280;4356;49.068;8.658;2023-07-20T13:29:17;99615.69;;;29.98;27.06
8637;BME280;4356;49.068;8.658;2023-07-20T13:31:43;99613.13;;;30.01;27.15
8637;BME280;4356;49.068;8.658;2023-07-20T13:34:09;99612.00;;;30.02;27.33
8637;BME280;4356;49.068;8.658;2023-07-20T13:36:34;99613.66;;;30.03;27.37